sensor_id;sensor_type;location;lat;lon;timestamp;pressure;altitude;pressure_sealevel;temperature;humidity
60427;BME280;46274;47.168;27.604;2023-04-05T00:04:30;99921.09;;;-0.40;88.88
60427;BME280;46274;47.168;27.604;2023-04-05T00:10:35;99928.13;;;-0.39;88.79
60427;BME280;46274;47.168;27.604;2023-04-05T00:16:39;99926.09;;;-0.35;89.05
60427;BME280;46274;47.168;27.604;2023-04-05T00:22:44;99911.25;;;-0.51;88.90
60427;BME280;46274;47.168;27.604;2023-04-05T00:28:50;99855.84;;;-0.82;89.43
60427;BME280;46274;47.168;27.604;2023-04-05T00:34:53;99770.94;;;-1.35;89.43
60427;BME280;46274;47.168;27.604;2023-04-05T00:40:58;99912.31;;;-0.53;90.16
60427;BME280;46274;47.168;27.604;2023-04-05T00:47:01;99906.66;;;-0.49;89.60
60427;BME280;46274;47.168;27.604;2023-04-05T00:53:13;99892.53;;;-0.62;89.70
60427;BME280;46274;47.168;27.604;2023-04-05T00:59:16;99904.19;;;-0.52;89.78
60427;BME280;46274;47.168;27.604;2023-04-05T01:05:28;99909.00;;;-0.57;89.15
60427;BME280;46274;47.168;27.604;2023-04-05T01:11:34;99895.91;;;-0.60;89.20
60427;BME280;46274;47.168;27.604;2023-04-05T01:17:39;99898.56;;;-0.60;89.24
60427;BME280;46274;47.168;27.604;2023-04-05T01:30:06;99886.34;;;-0.62;88.76
60427;BME280;46274;47.168;27.604;2023-04-05T01:36:26;99890.94;;;-0.64;88.86
60427;BME280;46274;47.168;27.604;2023-04-05T01:42:38;99889.00;;;-0.62;89.38
60427;BME280;46274;47.168;27.604;2023-04-05T01:48:41;99881.16;;;-0.64;89.18
60427;BME280;46274;47.168;27.604;2023-04-05T01:54:43;99855.72;;;-0.81;89.43
60427;BME280;46274;47.168;27.604;2023-04-05T02:00:47;99878.59;;;-0.66;89.52
60427;BME280;46274;47.168;27.604;2023-04-05T02:07:00;99783.78;;;-1.16;89.34
60427;BME280;46274;47.168;27.604;2023-04-05T02:13:04;99843.09;;;-0.77;89.57
60427;BME280;46274;47.168;27.604;2023-04-05T02:19:22;99705.53;;;-1.62;88.98
60427;BME280;46274;47.168;27.604;2023-04-05T02:25:25;99734.50;;;-1.46;89.19
60427;BME280;46274;47.168;27.604;2023-04-05T02:31:29;99838.84;;;-0.80;88.98
60427;BME280;46274;47.168;27.604;2023-04-05T02:37:37;99857.75;;;-0.72;88.31
60427;BME280;46274;47.168;27.604;2023-04-05T02:43:40;99830.13;;;-0.95;88.37
60427;BME280;46274;47.168;27.604;2023-04-05T02:49:46;99846.38;;;-0.86;88.16
60427;BME280;46274;47.168;27.604;2023-04-05T02:56:01;99753.19;;;-1.47;87.75
60427;BME280;46274;47.168;27.604;2023-04-05T03:02:05;99864.13;;;-0.74;87.53
60427;BME280;46274;47.168;27.604;2023-04-05T03:08:08;99861.47;;;-0.74;87.33
60427;BME280;46274;47.168;27.604;2023-04-05T03:14:10;99852.69;;;-0.88;86.88
60427;BME280;46274;47.168;27.604;2023-04-05T03:20:14;99875.53;;;-0.72;86.53
60427;BME280;46274;47.168;27.604;2023-04-05T03:26:35;99871.16;;;-0.73;86.47
60427;BME280;46274;47.168;27.604;2023-04-05T03:32:40;99844.78;;;-0.89;85.96
60427;BME280;46274;47.168;27.604;2023-04-05T03:38:43;99838.84;;;-0.93;85.59
60427;BME280;46274;47.168;27.604;2023-04-05T03:44:51;99863.91;;;-0.71;85.58
60427;BME280;46274;47.168;27.604;2023-04-05T03:50:56;99864.75;;;-0.71;85.54
60427;BME280;46274;47.168;27.604;2023-04-05T03:57:06;99804.94;;;-1.02;85.13
60427;BME280;46274;47.168;27.604;2023-04-05T04:03:12;99859.66;;;-0.74;85.03
60427;BME280;46274;47.168;27.604;2023-04-05T04:09:16;99775.72;;;-1.27;85.32
60427;BME280;46274;47.168;27.604;2023-04-05T04:15:24;99843.72;;;-0.86;85.41
60427;BME280;46274;47.168;27.604;2023-04-05T04:21:28;99865.81;;;-0.73;85.28
60427;BME280;46274;47.168;27.604;2023-04-05T04:27:38;99842.69;;;-0.97;85.31
60427;BME280;46274;47.168;27.604;2023-04-05T04:33:46;99712.88;;;-1.78;85.03
60427;BME280;46274;47.168;27.604;2023-04-05T04:39:50;99745.25;;;-1.60;85.21
60427;BME280;46274;47.168;27.604;2023-04-05T04:45:54;99880.13;;;-0.87;85.73
60427;BME280;46274;47.168;27.604;2023-04-05T04:51:57;99848.00;;;-0.97;85.83
60427;BME280;46274;47.168;27.604;2023-04-05T04:58:01;99873.31;;;-0.91;86.42
60427;BME280;46274;47.168;27.604;2023-04-05T05:04:12;99830.69;;;-1.28;86.91
60427;BME280;46274;47.168;27.604;2023-04-05T05:10:18;99845.13;;;-1.19;86.96
60427;BME280;46274;47.168;27.604;2023-04-05T05:16:22;99842.59;;;-1.08;87.61
60427;BME280;46274;47.168;27.604;2023-04-05T05:22:25;99850.97;;;-1.14;87.68
60427;BME280;46274;47.168;27.604;2023-04-05T05:28:31;99861.84;;;-1.17;88.06
60427;BME280;46274;47.168;27.604;2023-04-05T05:34:37;99873.09;;;-1.01;87.69
60427;BME280;46274;47.168;27.604;2023-04-05T05:40:40;99886.72;;;-0.93;87.85
60427;BME280;46274;47.168;27.604;2023-04-05T05:46:43;99879.91;;;-0.97;87.40
60427;BME280;46274;47.168;27.604;2023-04-05T05:52:49;99886.06;;;-0.83;87.26
60427;BME280;46274;47.168;27.604;2023-04-05T05:58:51;99842.47;;;-0.94;86.65
60427;BME280;46274;47.168;27.604;2023-04-05T06:04:55;99846.31;;;-0.98;86.80
60427;BME280;46274;47.168;27.604;2023-04-05T06:10:59;99852.69;;;-0.88;86.09
60427;BME280;46274;47.168;27.604;2023-04-05T06:17:03;99883.69;;;-0.75;85.59
60427;BME280;46274;47.168;27.604;2023-04-05T06:23:07;99872.00;;;-0.73;84.62
60427;BME280;46274;47.168;27.604;2023-04-05T06:29:12;99802.38;;;-1.03;84.42
60427;BME280;46274;47.168;27.604;2023-04-05T06:35:16;99835.81;;;-0.75;83.78
60427;BME280;46274;47.168;27.604;2023-04-05T06:41:18;99879.59;;;-0.42;82.91
60427;BME280;46274;47.168;27.604;2023-04-05T06:47:25;99879.41;;;-0.52;82.12
60427;BME280;46274;47.168;27.604;2023-04-05T06:53:28;99889.16;;;-0.40;82.14
60427;BME280;46274;47.168;27.604;2023-04-05T06:59:33;99885.19;;;-0.34;80.99
60427;BME280;46274;47.168;27.604;2023-04-05T07:05:35;99875.25;;;-0.43;80.97
60427;BME280;46274;47.168;27.604;2023-04-05T07:11:38;99852.97;;;-0.42;80.43
60427;BME280;46274;47.168;27.604;2023-04-05T07:17:44;99892.97;;;-0.31;80.61
60427;BME280;46274;47.168;27.604;2023-04-05T07:23:48;99870.78;;;-0.19;80.35
60427;BME280;46274;47.168;27.604;2023-04-05T07:30:10;99865.13;;;-0.38;79.54
60427;BME280;46274;47.168;27.604;2023-04-05T07:36:17;99807.44;;;-0.51;79.41
60427;BME280;46274;47.168;27.604;2023-04-05T07:42:22;99883.28;;;-0.08;79.38
60427;BME280;46274;47.168;27.604;2023-04-05T07:48:25;99874.06;;;0.09;79.31
60427;BME280;46274;47.168;27.604;2023-04-05T07:54:30;99837.38;;;-0.23;79.42
60427;BME280;46274;47.168;27.604;2023-04-05T08:00:48;99773.53;;;-0.60;79.01
60427;BME280;46274;47.168;27.604;2023-04-05T08:06:54;99788.88;;;-0.39;78.58
60427;BME280;46274;47.168;27.604;2023-04-05T08:12:59;99857.75;;;0.13;79.05
60427;BME280;46274;47.168;27.604;2023-04-05T08:19:01;99857.03;;;-0.13;79.28
60427;BME280;46274;47.168;27.604;2023-04-05T08:25:05;99744.72;;;-0.66;78.72
60427;BME280;46274;47.168;27.604;2023-04-05T08:31:13;99878.47;;;0.21;78.89
60427;BME280;46274;47.168;27.604;2023-04-05T08:37:17;99800.88;;;-0.10;78.19
60427;BME280;46274;47.168;27.604;2023-04-05T08:43:36;99877.84;;;0.53;77.98
60427;BME280;46274;47.168;27.604;2023-04-05T08:49:44;99882.00;;;0.57;77.63
60427;BME280;46274;47.168;27.604;2023-04-05T08:55:55;99845.25;;;0.14;77.47
60427;BME280;46274;47.168;27.604;2023-04-05T09:01:58;99850.63;;;0.25;76.93
60427;BME280;46274;47.168;27.604;2023-04-05T09:08:10;99908.84;;;0.54;76.54
60427;BME280;46274;47.168;27.604;2023-04-05T09:14:24;99888.69;;;0.74;76.16
60427;BME280;46274;47.168;27.604;2023-04-05T09:20:31;99872.34;;;0.78;75.82
60427;BME280;46274;47.168;27.604;2023-04-05T09:26:35;99882.47;;;0.62;75.66
60427;BME280;46274;47.168;27.604;2023-04-05T09:32:58;99905.66;;;0.73;75.53
60427;BME280;46274;47.168;27.604;2023-04-05T09:39:08;99888.56;;;0.75;75.01
60427;BME280;46274;47.168;27.604;2023-04-05T09:45:19;99899.69;;;0.69;75.73
60427;BME280;46274;47.168;27.604;2023-04-05T09:51:36;99891.75;;;0.80;75.68
60427;BME280;46274;47.168;27.604;2023-04-05T09:57:47;99819.28;;;0.29;76.01
60427;BME280;46274;47.168;27.604;2023-04-05T10:04:05;99879.03;;;0.49;76.66
60427;BME280;46274;47.168;27.604;2023-04-05T10:10:20;99893.16;;;0.73;76.32
60427;BME280;46274;47.168;27.604;2023-04-05T10:16:45;99877.03;;;0.63;76.47
60427;BME280;46274;47.168;27.604;2023-04-05T10:23:17;99882.50;;;0.84;76.34
60427;BME280;46274;47.168;27.604;2023-04-05T10:29:57;99738.81;;;0.01;76.03
60427;BME280;46274;47.168;27.604;2023-04-05T10:36:36;99868.59;;;0.81;76.51
60427;BME280;46274;47.168;27.604;2023-04-05T10:42:59;99841.19;;;0.68;75.46
60427;BME280;46274;47.168;27.604;2023-04-05T10:49:36;99866.84;;;0.69;74.99
60427;BME280;46274;47.168;27.604;2023-04-05T10:56:06;99860.94;;;0.87;75.51
60427;BME280;46274;47.168;27.604;2023-04-05T11:02:11;99861.81;;;0.99;75.16
60427;BME280;46274;47.168;27.604;2023-04-05T11:08:30;99864.59;;;0.86;74.99
60427;BME280;46274;47.168;27.604;2023-04-05T11:14:50;99674.97;;;-0.23;75.42
60427;BME280;46274;47.168;27.604;2023-04-05T11:21:11;99864.72;;;0.96;75.04
60427;BME280;46274;47.168;27.604;2023-04-05T11:34:10;99835.09;;;0.77;76.14
60427;BME280;46274;47.168;27.604;2023-04-05T11:40:27;99872.81;;;0.95;76.06
60427;BME280;46274;47.168;27.604;2023-04-05T11:46:35;99833.41;;;0.87;77.24
60427;BME280;46274;47.168;27.604;2023-04-05T11:52:38;99857.41;;;0.76;78.22
60427;BME280;46274;47.168;27.604;2023-04-05T11:59:02;99632.97;;;-0.66;79.05
60427;BME280;46274;47.168;27.604;2023-04-05T12:05:11;99799.81;;;0.51;79.63
60427;BME280;46274;47.168;27.604;2023-04-05T12:11:28;99828.44;;;0.60;80.13
60427;BME280;46274;47.168;27.604;2023-04-05T12:17:48;99840.56;;;0.75;80.30
60427;BME280;46274;47.168;27.604;2023-04-05T12:23:52;99867.59;;;0.71;80.44
60427;BME280;46274;47.168;27.604;2023-04-05T12:30:24;99608.84;;;-0.87;80.35
60427;BME280;46274;47.168;27.604;2023-04-05T12:36:49;99818.47;;;0.62;80.26
60427;BME280;46274;47.168;27.604;2023-04-05T12:43:06;99853.41;;;0.81;80.09
60427;BME280;46274;47.168;27.604;2023-04-05T12:49:26;99746.34;;;0.18;79.99
60427;BME280;46274;47.168;27.604;2023-04-05T12:55:32;99809.28;;;0.66;79.79
60427;BME280;46274;47.168;27.604;2023-04-05T13:01:41;99868.69;;;0.79;80.26
60427;BME280;46274;47.168;27.604;2023-04-05T13:07:55;99869.81;;;0.88;80.27
60427;BME280;46274;47.168;27.604;2023-04-05T13:14:29;99875.50;;;0.83;80.77
60427;BME280;46274;47.168;27.604;2023-04-05T13:20:37;99850.97;;;0.67;81.43
60427;BME280;46274;47.168;27.604;2023-04-05T13:26:50;99871.34;;;0.68;82.63
60427;BME280;46274;47.168;27.604;2023-04-05T13:33:12;99854.59;;;0.55;83.90
60427;BME280;46274;47.168;27.604;2023-04-05T13:39:34;99875.44;;;0.61;84.53
60427;BME280;46274;47.168;27.604;2023-04-05T13:45:40;99846.19;;;0.37;84.78
60427;BME280;46274;47.168;27.604;2023-04-05T13:51:48;99885.09;;;0.51;85.46
60427;BME280;46274;47.168;27.604;2023-04-05T13:57:56;99878.34;;;0.47;85.79
60427;BME280;46274;47.168;27.604;2023-04-05T14:04:07;99804.78;;;-0.03;86.25
60427;BME280;46274;47.168;27.604;2023-04-05T14:10:14;99877.84;;;0.41;86.81
60427;BME280;46274;47.168;27.604;2023-04-05T14:16:17;99876.84;;;0.42;86.97
60427;BME280;46274;47.168;27.604;2023-04-05T14:22:20;99878.53;;;0.43;87.07
60427;BME280;46274;47.168;27.604;2023-04-05T14:28:26;99854.03;;;0.27;87.34
60427;BME280;46274;47.168;27.604;2023-04-05T14:34:30;99877.84;;;0.41;87.58
60427;BME280;46274;47.168;27.604;2023-04-05T14:40:35;99828.03;;;0.07;87.67
60427;BME280;46274;47.168;27.604;2023-04-05T14:46:38;99829.34;;;0.01;88.17
60427;BME280;46274;47.168;27.604;2023-04-05T14:52:40;99881.19;;;0.32;88.33
60427;BME280;46274;47.168;27.604;2023-04-05T14:58:43;99849.03;;;0.22;88.11
60427;BME280;46274;47.168;27.604;2023-04-05T15:04:47;99865.28;;;0.31;88.48
60427;BME280;46274;47.168;27.604;2023-04-05T15:10:52;99867.75;;;0.34;88.57
60427;BME280;46274;47.168;27.604;2023-04-05T15:16:54;99862.53;;;0.32;89.02
60427;BME280;46274;47.168;27.604;2023-04-05T15:22:57;99854.03;;;0.27;88.82
60427;BME280;46274;47.168;27.604;2023-04-05T15:29:00;99852.03;;;0.18;89.01
60427;BME280;46274;47.168;27.604;2023-04-05T15:35:03;99860.78;;;0.20;89.87
60427;BME280;46274;47.168;27.604;2023-04-05T15:41:07;99848.44;;;0.19;89.88
60427;BME280;46274;47.168;27.604;2023-04-05T15:47:09;99839.47;;;0.20;90.02
60427;BME280;46274;47.168;27.604;2023-04-05T15:53:16;99829.53;;;0.11;89.96
60427;BME280;46274;47.168;27.604;2023-04-05T15:59:18;99809.88;;;0.01;90.27
60427;BME280;46274;47.168;27.604;2023-04-05T16:05:21;99820.28;;;0.04;90.71
60427;BME280;46274;47.168;27.604;2023-04-05T16:11:23;99789.75;;;-0.04;90.75
60427;BME280;46274;47.168;27.604;2023-04-05T16:17:26;99794.22;;;-0.04;91.00
60427;BME280;46274;47.168;27.604;2023-04-05T16:23:29;99775.47;;;-0.03;90.82
60427;BME280;46274;47.168;27.604;2023-04-05T16:29:32;99798.47;;;-0.02;91.04
60427;BME280;46274;47.168;27.604;2023-04-05T16:35:34;99795.06;;;-0.04;90.79
60427;BME280;46274;47.168;27.604;2023-04-05T16:41:37;99724.75;;;-0.36;91.15
60427;BME280;46274;47.168;27.604;2023-04-05T16:47:39;99796.56;;;0.01;91.34
60427;BME280;46274;47.168;27.604;2023-04-05T16:53:49;99684.09;;;-0.74;91.69
60427;BME280;46274;47.168;27.604;2023-04-05T16:59:52;99805.72;;;-0.04;92.09
60427;BME280;46274;47.168;27.604;2023-04-05T17:05:57;99768.84;;;-0.21;92.34
60427;BME280;46274;47.168;27.604;2023-04-05T17:12:00;99805.72;;;-0.04;92.50
60427;BME280;46274;47.168;27.604;2023-04-05T17:18:04;99762.25;;;-0.39;91.90
60427;BME280;46274;47.168;27.604;2023-04-05T18:39:00;99750.63;;;-0.14;92.99
60427;BME280;46274;47.168;27.604;2023-04-05T18:45:08;99613.25;;;-0.99;92.79
60427;BME280;46274;47.168;27.604;2023-04-05T19:10:23;99759.25;;;0.01;92.11
60427;BME280;46274;47.168;27.604;2023-04-05T19:16:59;99662.53;;;-0.47;91.19
60427;BME280;46274;47.168;27.604;2023-04-05T19:24:17;99662.44;;;-0.45;91.36
60427;BME280;46274;47.168;27.604;2023-04-05T20:11:54;99576.88;;;-0.52;91.24
60427;BME280;46274;47.168;27.604;2023-04-05T20:17:57;99633.06;;;-0.21;91.79
60427;BME280;46274;47.168;27.604;2023-04-05T20:24:00;99628.00;;;-0.24;92.05
60427;BME280;46274;47.168;27.604;2023-04-05T20:30:08;99627.41;;;-0.28;92.73
60427;BME280;46274;47.168;27.604;2023-04-05T20:36:13;99557.66;;;-0.67;93.51
60427;BME280;46274;47.168;27.604;2023-04-05T20:42:17;99611.03;;;-0.34;93.83
60427;BME280;46274;47.168;27.604;2023-04-05T20:48:19;99602.94;;;-0.33;93.73
60427;BME280;46274;47.168;27.604;2023-04-05T20:54:22;99599.06;;;-0.29;92.97
60427;BME280;46274;47.168;27.604;2023-04-05T21:00:24;99598.72;;;-0.24;92.06
60427;BME280;46274;47.168;27.604;2023-04-05T21:06:27;99596.06;;;-0.24;91.74
60427;BME280;46274;47.168;27.604;2023-04-05T21:12:29;99589.41;;;-0.18;91.80
60427;BME280;46274;47.168;27.604;2023-04-05T21:18:30;99507.22;;;-0.68;91.44
60427;BME280;46274;47.168;27.604;2023-04-05T21:24:32;99563.25;;;-0.25;91.66
60427;BME280;46274;47.168;27.604;2023-04-05T21:30:34;99504.78;;;-0.60;91.83
60427;BME280;46274;47.168;27.604;2023-04-05T21:36:36;99556.63;;;-0.30;91.66
60427;BME280;46274;47.168;27.604;2023-04-05T21:42:38;99537.13;;;-0.31;91.93
60427;BME280;46274;47.168;27.604;2023-04-05T21:48:40;99499.38;;;-0.47;91.85
60427;BME280;46274;47.168;27.604;2023-04-05T21:54:42;99371.06;;;-1.18;91.13
60427;BME280;46274;47.168;27.604;2023-04-05T22:00:44;99522.97;;;-0.20;90.97
60427;BME280;46274;47.168;27.604;2023-04-05T22:06:46;99525.88;;;-0.23;90.84
60427;BME280;46274;47.168;27.604;2023-04-05T22:12:47;99303.50;;;-1.49;91.02
60427;BME280;46274;47.168;27.604;2023-04-05T22:18:49;99296.13;;;-1.57;90.85
60427;BME280;46274;47.168;27.604;2023-04-05T22:24:51;99456.69;;;-0.46;90.99
60427;BME280;46274;47.168;27.604;2023-04-05T22:30:53;99356.78;;;-1.06;91.06
60427;BME280;46274;47.168;27.604;2023-04-05T22:36:55;99396.72;;;-0.72;91.16
60427;BME280;46274;47.168;27.604;2023-04-05T22:42:57;99456.19;;;-0.28;91.31
60427;BME280;46274;47.168;27.604;2023-04-05T22:48:59;99443.97;;;-0.31;91.71
60427;BME280;46274;47.168;27.604;2023-04-05T22:55:02;99379.06;;;-0.62;91.59
60427;BME280;46274;47.168;27.604;2023-04-05T23:01:04;99436.84;;;-0.30;91.70
60427;BME280;46274;47.168;27.604;2023-04-05T23:07:06;99418.94;;;-0.28;91.06
60427;BME280;46274;47.168;27.604;2023-04-05T23:13:08;99396.53;;;-0.37;90.43
60427;BME280;46274;47.168;27.604;2023-04-05T23:19:11;99390.00;;;-0.33;89.70
60427;BME280;46274;47.168;27.604;2023-04-05T23:25:12;99201.47;;;-1.47;89.58
60427;BME280;46274;47.168;27.604;2023-04-05T23:31:15;99409.44;;;-0.21;89.93
60427;BME280;46274;47.168;27.604;2023-04-05T23:37:16;99368.34;;;-0.39;90.32
60427;BME280;46274;47.168;27.604;2023-04-05T23:43:18;99398.09;;;-0.23;90.50
60427;BME280;46274;47.168;27.604;2023-04-05T23:49:20;99378.50;;;-0.22;90.40
60427;BME280;46274;47.168;27.604;2023-04-05T23:55:23;99372.59;;;-0.26;90.41
